sensor_id;sensor_type;location;lat;lon;timestamp;P1;durP1;ratioP1;P2;durP2;ratioP2
72647;SDS011;60693;50.002;8.644;2023-02-01T00:01:41;8.80;;;2.20;;
72647;SDS011;60693;50.002;8.644;2023-02-01T00:04:06;7.45;;;2.17;;
72647;SDS011;60693;50.002;8.644;2023-02-01T00:06:32;6.93;;;2.13;;
72647;SDS011;60693;50.002;8.644;2023-02-01T00:08:58;7.47;;;2.47;;
72647;SDS011;60693;50.002;8.644;2023-02-01T00:11:23;9.77;;;2.13;;
72647;SDS011;60693;50.002;8.644;2023-02-01T00:13:50;6.50;;;2.00;;
72647;SDS011;60693;50.002;8.644;2023-02-01T00:16:16;8.40;;;2.45;;
72647;SDS011;60693;50.002;8.644;2023-02-01T00:18:46;9.70;;;2.40;;
72647;SDS011;60693;50.002;8.644;2023-02-01T00:21:14;8.32;;;2.47;;
72647;SDS011;60693;50.002;8.644;2023-02-01T00:23:41;7.53;;;2.30;;
72647;SDS011;60693;50.002;8.644;2023-02-01T00:26:09;8.95;;;2.25;;
72647;SDS011;60693;50.002;8.644;2023-02-01T00:28:38;8.18;;;2.25;;
72647;SDS011;60693;50.002;8.644;2023-02-01T00:31:04;8.27;;;2.37;;
72647;SDS011;60693;50.002;8.644;2023-02-01T00:33:30;8.90;;;2.83;;
72647;SDS011;60693;50.002;8.644;2023-02-01T00:35:57;7.50;;;2.15;;
72647;SDS011;60693;50.002;8.644;2023-02-01T00:38:24;9.30;;;2.63;;
72647;SDS011;60693;50.002;8.644;2023-02-01T00:40:50;7.75;;;2.08;;
72647;SDS011;60693;50.002;8.644;2023-02-01T00:43:16;8.40;;;2.80;;
72647;SDS011;60693;50.002;8.644;2023-02-01T00:45:41;9.60;;;2.72;;
72647;SDS011;60693;50.002;8.644;2023-02-01T00:48:07;9.77;;;2.77;;
72647;SDS011;60693;50.002;8.644;2023-02-01T00:50:33;13.03;;;3.10;;
72647;SDS011;60693;50.002;8.644;2023-02-01T00:52:58;9.60;;;2.90;;
72647;SDS011;60693;50.002;8.644;2023-02-01T00:55:24;12.18;;;3.38;;
72647;SDS011;60693;50.002;8.644;2023-02-01T00:57:50;9.90;;;2.60;;
72647;SDS011;60693;50.002;8.644;2023-02-01T01:00:16;10.17;;;2.97;;
72647;SDS011;60693;50.002;8.644;2023-02-01T01:02:42;9.40;;;2.70;;
72647;SDS011;60693;50.002;8.644;2023-02-01T01:05:07;11.02;;;3.80;;
72647;SDS011;60693;50.002;8.644;2023-02-01T01:07:33;10.32;;;2.58;;
72647;SDS011;60693;50.002;8.644;2023-02-01T01:09:59;9.23;;;3.20;;
72647;SDS011;60693;50.002;8.644;2023-02-01T01:12:25;9.93;;;2.70;;
72647;SDS011;60693;50.002;8.644;2023-02-01T01:14:51;11.23;;;3.15;;
72647;SDS011;60693;50.002;8.644;2023-02-01T01:17:17;9.10;;;3.00;;
72647;SDS011;60693;50.002;8.644;2023-02-01T01:19:42;9.25;;;3.67;;
72647;SDS011;60693;50.002;8.644;2023-02-01T01:22:08;10.43;;;3.13;;
72647;SDS011;60693;50.002;8.644;2023-02-01T01:24:34;9.73;;;3.30;;
72647;SDS011;60693;50.002;8.644;2023-02-01T01:26:59;12.30;;;2.63;;
72647;SDS011;60693;50.002;8.644;2023-02-01T01:29:25;9.60;;;3.50;;
72647;SDS011;60693;50.002;8.644;2023-02-01T01:31:51;9.77;;;3.08;;
72647;SDS011;60693;50.002;8.644;2023-02-01T01:34:16;9.17;;;3.03;;
72647;SDS011;60693;50.002;8.644;2023-02-01T01:36:42;10.87;;;3.00;;
72647;SDS011;60693;50.002;8.644;2023-02-01T01:39:07;10.18;;;2.92;;
72647;SDS011;60693;50.002;8.644;2023-02-01T01:41:33;10.33;;;3.27;;
72647;SDS011;60693;50.002;8.644;2023-02-01T01:43:59;13.50;;;3.58;;
72647;SDS011;60693;50.002;8.644;2023-02-01T01:46:36;9.80;;;3.57;;
72647;SDS011;60693;50.002;8.644;2023-02-01T01:51:52;13.07;;;4.15;;
72647;SDS011;60693;50.002;8.644;2023-02-01T01:54:24;12.57;;;3.60;;
72647;SDS011;60693;50.002;8.644;2023-02-01T01:56:53;9.90;;;3.58;;
72647;SDS011;60693;50.002;8.644;2023-02-01T01:59:22;10.60;;;3.87;;
72647;SDS011;60693;50.002;8.644;2023-02-01T02:01:49;10.32;;;3.60;;
72647;SDS011;60693;50.002;8.644;2023-02-01T02:04:15;15.15;;;4.57;;
72647;SDS011;60693;50.002;8.644;2023-02-01T02:06:47;12.52;;;4.35;;
72647;SDS011;60693;50.002;8.644;2023-02-01T02:09:15;10.93;;;3.53;;
72647;SDS011;60693;50.002;8.644;2023-02-01T02:11:41;13.48;;;4.60;;
72647;SDS011;60693;50.002;8.644;2023-02-01T02:14:08;11.85;;;3.85;;
72647;SDS011;60693;50.002;8.644;2023-02-01T02:19:15;12.13;;;4.72;;
72647;SDS011;60693;50.002;8.644;2023-02-01T02:30:53;10.97;;;3.93;;
72647;SDS011;60693;50.002;8.644;2023-02-01T02:33:39;11.55;;;4.30;;
72647;SDS011;60693;50.002;8.644;2023-02-01T02:36:13;13.38;;;5.00;;
72647;SDS011;60693;50.002;8.644;2023-02-01T02:38:46;13.82;;;3.95;;
72647;SDS011;60693;50.002;8.644;2023-02-01T02:41:18;15.88;;;4.97;;
72647;SDS011;60693;50.002;8.644;2023-02-01T02:44:16;15.10;;;5.33;;
72647;SDS011;60693;50.002;8.644;2023-02-01T02:47:15;13.10;;;4.55;;
72647;SDS011;60693;50.002;8.644;2023-02-01T02:52:51;16.83;;;5.07;;
72647;SDS011;60693;50.002;8.644;2023-02-01T02:55:42;14.27;;;5.18;;
72647;SDS011;60693;50.002;8.644;2023-02-01T02:58:09;13.10;;;4.73;;
72647;SDS011;60693;50.002;8.644;2023-02-01T03:00:55;14.02;;;5.05;;
72647;SDS011;60693;50.002;8.644;2023-02-01T03:03:39;14.32;;;4.13;;
72647;SDS011;60693;50.002;8.644;2023-02-01T03:06:24;12.40;;;3.88;;
72647;SDS011;60693;50.002;8.644;2023-02-01T03:08:50;12.27;;;3.63;;
72647;SDS011;60693;50.002;8.644;2023-02-01T03:11:19;11.67;;;3.67;;
72647;SDS011;60693;50.002;8.644;2023-02-01T03:13:47;10.73;;;3.00;;
72647;SDS011;60693;50.002;8.644;2023-02-01T03:16:25;11.88;;;3.22;;
72647;SDS011;60693;50.002;8.644;2023-02-01T03:18:57;8.68;;;2.33;;
72647;SDS011;60693;50.002;8.644;2023-02-01T03:24:05;8.77;;;2.90;;
72647;SDS011;60693;50.002;8.644;2023-02-01T03:26:35;12.75;;;3.40;;
72647;SDS011;60693;50.002;8.644;2023-02-01T03:29:17;8.70;;;2.60;;
72647;SDS011;60693;50.002;8.644;2023-02-01T03:31:46;8.98;;;2.60;;
72647;SDS011;60693;50.002;8.644;2023-02-01T03:34:12;10.60;;;3.50;;
72647;SDS011;60693;50.002;8.644;2023-02-01T03:36:39;11.32;;;3.10;;
72647;SDS011;60693;50.002;8.644;2023-02-01T03:39:37;10.23;;;3.55;;
72647;SDS011;60693;50.002;8.644;2023-02-01T03:42:12;10.55;;;3.33;;
72647;SDS011;60693;50.002;8.644;2023-02-01T03:44:50;11.27;;;3.67;;
72647;SDS011;60693;50.002;8.644;2023-02-01T03:47:23;10.82;;;3.78;;
72647;SDS011;60693;50.002;8.644;2023-02-01T03:49:51;12.25;;;4.10;;
72647;SDS011;60693;50.002;8.644;2023-02-01T03:52:30;12.90;;;3.97;;
72647;SDS011;60693;50.002;8.644;2023-02-01T03:54:57;15.23;;;5.18;;
72647;SDS011;60693;50.002;8.644;2023-02-01T03:57:29;11.40;;;3.97;;
72647;SDS011;60693;50.002;8.644;2023-02-01T04:00:05;13.93;;;3.80;;
72647;SDS011;60693;50.002;8.644;2023-02-01T04:02:33;13.10;;;3.97;;
72647;SDS011;60693;50.002;8.644;2023-02-01T04:04:59;13.32;;;3.88;;
72647;SDS011;60693;50.002;8.644;2023-02-01T04:07:24;14.77;;;4.43;;
72647;SDS011;60693;50.002;8.644;2023-02-01T04:09:50;10.83;;;3.73;;
72647;SDS011;60693;50.002;8.644;2023-02-01T04:12:15;15.13;;;5.32;;
72647;SDS011;60693;50.002;8.644;2023-02-01T04:14:41;11.57;;;3.50;;
72647;SDS011;60693;50.002;8.644;2023-02-01T04:17:06;15.03;;;4.77;;
72647;SDS011;60693;50.002;8.644;2023-02-01T04:19:32;14.65;;;4.22;;
72647;SDS011;60693;50.002;8.644;2023-02-01T04:21:58;14.77;;;4.50;;
72647;SDS011;60693;50.002;8.644;2023-02-01T04:24:23;13.03;;;4.50;;
72647;SDS011;60693;50.002;8.644;2023-02-01T04:26:49;14.40;;;4.55;;
72647;SDS011;60693;50.002;8.644;2023-02-01T04:29:14;15.30;;;4.40;;
72647;SDS011;60693;50.002;8.644;2023-02-01T04:31:40;15.27;;;5.23;;
72647;SDS011;60693;50.002;8.644;2023-02-01T04:34:06;14.93;;;4.85;;
72647;SDS011;60693;50.002;8.644;2023-02-01T04:36:31;14.43;;;4.60;;
72647;SDS011;60693;50.002;8.644;2023-02-01T04:38:57;14.77;;;5.22;;
72647;SDS011;60693;50.002;8.644;2023-02-01T04:41:23;16.53;;;5.00;;
72647;SDS011;60693;50.002;8.644;2023-02-01T04:43:49;10.95;;;3.75;;
72647;SDS011;60693;50.002;8.644;2023-02-01T04:46:15;13.30;;;4.30;;
72647;SDS011;60693;50.002;8.644;2023-02-01T04:48:41;15.15;;;4.05;;
72647;SDS011;60693;50.002;8.644;2023-02-01T04:51:07;11.60;;;3.90;;
72647;SDS011;60693;50.002;8.644;2023-02-01T04:53:33;11.63;;;4.20;;
72647;SDS011;60693;50.002;8.644;2023-02-01T04:55:58;13.30;;;3.95;;
72647;SDS011;60693;50.002;8.644;2023-02-01T04:58:24;15.07;;;4.53;;
72647;SDS011;60693;50.002;8.644;2023-02-01T05:00:50;12.43;;;3.90;;
72647;SDS011;60693;50.002;8.644;2023-02-01T05:03:16;10.75;;;3.63;;
72647;SDS011;60693;50.002;8.644;2023-02-01T05:05:42;12.57;;;3.92;;
72647;SDS011;60693;50.002;8.644;2023-02-01T05:08:07;11.47;;;3.87;;
72647;SDS011;60693;50.002;8.644;2023-02-01T05:10:33;14.23;;;3.70;;
72647;SDS011;60693;50.002;8.644;2023-02-01T05:12:58;11.90;;;3.90;;
72647;SDS011;60693;50.002;8.644;2023-02-01T05:15:43;12.80;;;4.00;;
72647;SDS011;60693;50.002;8.644;2023-02-01T05:18:08;13.30;;;3.30;;
72647;SDS011;60693;50.002;8.644;2023-02-01T05:20:34;11.47;;;3.43;;
72647;SDS011;60693;50.002;8.644;2023-02-01T05:23:00;11.07;;;3.42;;
72647;SDS011;60693;50.002;8.644;2023-02-01T05:25:25;11.83;;;3.47;;
72647;SDS011;60693;50.002;8.644;2023-02-01T05:27:51;10.68;;;2.92;;
72647;SDS011;60693;50.002;8.644;2023-02-01T05:30:18;11.73;;;2.95;;
72647;SDS011;60693;50.002;8.644;2023-02-01T05:32:44;11.27;;;3.03;;
72647;SDS011;60693;50.002;8.644;2023-02-01T05:35:09;10.90;;;3.20;;
72647;SDS011;60693;50.002;8.644;2023-02-01T05:37:35;11.63;;;2.92;;
72647;SDS011;60693;50.002;8.644;2023-02-01T05:40:01;10.53;;;2.83;;
72647;SDS011;60693;50.002;8.644;2023-02-01T05:42:26;11.20;;;2.88;;
72647;SDS011;60693;50.002;8.644;2023-02-01T05:44:52;9.88;;;2.67;;
72647;SDS011;60693;50.002;8.644;2023-02-01T05:47:17;10.67;;;3.17;;
72647;SDS011;60693;50.002;8.644;2023-02-01T05:49:43;10.30;;;2.40;;
72647;SDS011;60693;50.002;8.644;2023-02-01T05:52:09;9.47;;;2.70;;
72647;SDS011;60693;50.002;8.644;2023-02-01T05:54:34;9.27;;;2.37;;
72647;SDS011;60693;50.002;8.644;2023-02-01T05:57:00;8.45;;;1.83;;
72647;SDS011;60693;50.002;8.644;2023-02-01T05:59:25;8.13;;;2.07;;
72647;SDS011;60693;50.002;8.644;2023-02-01T06:01:51;8.85;;;2.47;;
72647;SDS011;60693;50.002;8.644;2023-02-01T06:04:17;11.13;;;1.80;;
72647;SDS011;60693;50.002;8.644;2023-02-01T06:06:42;8.35;;;2.28;;
72647;SDS011;60693;50.002;8.644;2023-02-01T06:09:08;8.33;;;1.80;;
72647;SDS011;60693;50.002;8.644;2023-02-01T06:11:34;6.87;;;1.60;;
72647;SDS011;60693;50.002;8.644;2023-02-01T06:13:59;10.27;;;2.38;;
72647;SDS011;60693;50.002;8.644;2023-02-01T06:16:25;8.33;;;2.00;;
72647;SDS011;60693;50.002;8.644;2023-02-01T06:18:51;11.23;;;2.03;;
72647;SDS011;60693;50.002;8.644;2023-02-01T06:21:17;12.87;;;1.53;;
72647;SDS011;60693;50.002;8.644;2023-02-01T06:23:52;9.25;;;1.70;;
72647;SDS011;60693;50.002;8.644;2023-02-01T06:26:19;10.88;;;2.17;;
72647;SDS011;60693;50.002;8.644;2023-02-01T06:28:45;9.85;;;2.17;;
72647;SDS011;60693;50.002;8.644;2023-02-01T06:31:10;9.07;;;2.03;;
72647;SDS011;60693;50.002;8.644;2023-02-01T06:33:37;8.50;;;1.73;;
72647;SDS011;60693;50.002;8.644;2023-02-01T06:36:04;7.55;;;1.15;;
72647;SDS011;60693;50.002;8.644;2023-02-01T06:38:31;8.23;;;2.05;;
72647;SDS011;60693;50.002;8.644;2023-02-01T06:40:59;7.13;;;1.30;;
72647;SDS011;60693;50.002;8.644;2023-02-01T06:43:26;6.50;;;1.02;;
72647;SDS011;60693;50.002;8.644;2023-02-01T06:45:52;9.00;;;1.00;;
72647;SDS011;60693;50.002;8.644;2023-02-01T06:48:18;8.27;;;1.70;;
72647;SDS011;60693;50.002;8.644;2023-02-01T06:50:43;7.53;;;1.50;;
72647;SDS011;60693;50.002;8.644;2023-02-01T06:53:09;7.15;;;1.15;;
72647;SDS011;60693;50.002;8.644;2023-02-01T06:55:35;10.30;;;1.30;;
72647;SDS011;60693;50.002;8.644;2023-02-01T06:58:01;7.20;;;1.30;;
72647;SDS011;60693;50.002;8.644;2023-02-01T07:00:27;4.70;;;1.10;;
72647;SDS011;60693;50.002;8.644;2023-02-01T07:02:54;10.20;;;2.28;;
72647;SDS011;60693;50.002;8.644;2023-02-01T07:05:20;6.47;;;1.60;;
72647;SDS011;60693;50.002;8.644;2023-02-01T07:07:45;5.72;;;1.00;;
72647;SDS011;60693;50.002;8.644;2023-02-01T07:10:11;8.03;;;1.70;;
72647;SDS011;60693;50.002;8.644;2023-02-01T07:12:37;7.18;;;1.35;;
72647;SDS011;60693;50.002;8.644;2023-02-01T07:15:03;14.33;;;1.60;;
72647;SDS011;60693;50.002;8.644;2023-02-01T07:17:29;9.57;;;1.83;;
72647;SDS011;60693;50.002;8.644;2023-02-01T07:19:55;6.20;;;1.27;;
72647;SDS011;60693;50.002;8.644;2023-02-01T07:22:21;6.95;;;1.13;;
72647;SDS011;60693;50.002;8.644;2023-02-01T07:24:46;7.23;;;1.37;;
72647;SDS011;60693;50.002;8.644;2023-02-01T07:27:12;11.20;;;2.58;;
72647;SDS011;60693;50.002;8.644;2023-02-01T07:29:38;6.97;;;0.90;;
72647;SDS011;60693;50.002;8.644;2023-02-01T07:32:03;13.38;;;1.60;;
72647;SDS011;60693;50.002;8.644;2023-02-01T07:34:29;9.17;;;1.50;;
72647;SDS011;60693;50.002;8.644;2023-02-01T07:36:56;9.07;;;2.20;;
72647;SDS011;60693;50.002;8.644;2023-02-01T07:39:22;8.25;;;1.30;;
72647;SDS011;60693;50.002;8.644;2023-02-01T07:41:47;11.43;;;2.00;;
72647;SDS011;60693;50.002;8.644;2023-02-01T07:44:13;7.93;;;1.93;;
72647;SDS011;60693;50.002;8.644;2023-02-01T07:46:39;8.05;;;1.40;;
72647;SDS011;60693;50.002;8.644;2023-02-01T07:49:05;7.07;;;1.48;;
72647;SDS011;60693;50.002;8.644;2023-02-01T07:51:31;7.37;;;1.17;;
72647;SDS011;60693;50.002;8.644;2023-02-01T07:53:56;7.78;;;1.13;;
72647;SDS011;60693;50.002;8.644;2023-02-01T07:56:22;8.13;;;1.57;;
72647;SDS011;60693;50.002;8.644;2023-02-01T07:58:49;8.50;;;1.88;;
72647;SDS011;60693;50.002;8.644;2023-02-01T08:01:19;13.52;;;1.77;;
72647;SDS011;60693;50.002;8.644;2023-02-01T08:03:46;10.73;;;1.50;;
72647;SDS011;60693;50.002;8.644;2023-02-01T08:06:13;13.38;;;4.53;;
72647;SDS011;60693;50.002;8.644;2023-02-01T08:08:38;9.57;;;2.28;;
72647;SDS011;60693;50.002;8.644;2023-02-01T08:11:05;9.38;;;1.38;;
72647;SDS011;60693;50.002;8.644;2023-02-01T08:13:32;7.63;;;1.40;;
72647;SDS011;60693;50.002;8.644;2023-02-01T08:15:59;10.57;;;1.50;;
72647;SDS011;60693;50.002;8.644;2023-02-01T08:18:25;8.70;;;1.50;;
72647;SDS011;60693;50.002;8.644;2023-02-01T08:20:51;12.18;;;1.90;;
72647;SDS011;60693;50.002;8.644;2023-02-01T08:23:16;9.25;;;1.70;;
72647;SDS011;60693;50.002;8.644;2023-02-01T08:25:42;10.00;;;1.50;;
72647;SDS011;60693;50.002;8.644;2023-02-01T08:28:08;11.23;;;1.98;;
72647;SDS011;60693;50.002;8.644;2023-02-01T08:30:36;8.32;;;1.42;;
72647;SDS011;60693;50.002;8.644;2023-02-01T08:33:02;7.60;;;1.00;;
72647;SDS011;60693;50.002;8.644;2023-02-01T08:35:28;8.13;;;1.17;;
72647;SDS011;60693;50.002;8.644;2023-02-01T08:37:53;11.03;;;1.63;;
72647;SDS011;60693;50.002;8.644;2023-02-01T08:40:19;8.68;;;1.08;;
72647;SDS011;60693;50.002;8.644;2023-02-01T08:42:46;8.45;;;1.40;;
72647;SDS011;60693;50.002;8.644;2023-02-01T08:45:26;11.77;;;1.77;;
72647;SDS011;60693;50.002;8.644;2023-02-01T08:47:54;15.40;;;1.63;;
72647;SDS011;60693;50.002;8.644;2023-02-01T08:50:20;11.90;;;2.00;;
72647;SDS011;60693;50.002;8.644;2023-02-01T08:52:46;8.15;;;1.20;;
72647;SDS011;60693;50.002;8.644;2023-02-01T08:55:12;8.25;;;1.27;;
72647;SDS011;60693;50.002;8.644;2023-02-01T08:57:38;7.37;;;1.40;;
72647;SDS011;60693;50.002;8.644;2023-02-01T09:00:04;10.65;;;1.70;;
72647;SDS011;60693;50.002;8.644;2023-02-01T09:02:33;11.25;;;1.83;;
72647;SDS011;60693;50.002;8.644;2023-02-01T09:04:59;10.77;;;2.08;;
72647;SDS011;60693;50.002;8.644;2023-02-01T09:07:24;11.90;;;1.50;;
72647;SDS011;60693;50.002;8.644;2023-02-01T09:09:50;14.73;;;1.90;;
72647;SDS011;60693;50.002;8.644;2023-02-01T09:12:16;10.55;;;1.92;;
72647;SDS011;60693;50.002;8.644;2023-02-01T09:14:41;14.17;;;1.50;;
72647;SDS011;60693;50.002;8.644;2023-02-01T09:17:07;8.43;;;1.60;;
72647;SDS011;60693;50.002;8.644;2023-02-01T09:19:33;10.03;;;1.50;;
72647;SDS011;60693;50.002;8.644;2023-02-01T09:21:58;14.32;;;2.75;;
72647;SDS011;60693;50.002;8.644;2023-02-01T09:24:24;11.25;;;1.63;;
72647;SDS011;60693;50.002;8.644;2023-02-01T09:26:50;13.97;;;1.43;;
72647;SDS011;60693;50.002;8.644;2023-02-01T09:29:16;7.10;;;1.30;;
72647;SDS011;60693;50.002;8.644;2023-02-01T09:31:41;11.57;;;1.33;;
72647;SDS011;60693;50.002;8.644;2023-02-01T09:34:07;9.80;;;1.65;;
72647;SDS011;60693;50.002;8.644;2023-02-01T09:36:33;8.00;;;1.07;;
72647;SDS011;60693;50.002;8.644;2023-02-01T09:38:59;12.88;;;1.40;;
72647;SDS011;60693;50.002;8.644;2023-02-01T09:44:30;9.40;;;1.85;;
72647;SDS011;60693;50.002;8.644;2023-02-01T09:46:57;8.83;;;1.67;;
72647;SDS011;60693;50.002;8.644;2023-02-01T09:49:29;11.10;;;1.17;;
72647;SDS011;60693;50.002;8.644;2023-02-01T09:51:56;8.43;;;1.15;;
72647;SDS011;60693;50.002;8.644;2023-02-01T09:54:23;11.60;;;2.25;;
72647;SDS011;60693;50.002;8.644;2023-02-01T09:57:05;7.63;;;1.23;;
72647;SDS011;60693;50.002;8.644;2023-02-01T10:02:14;8.23;;;1.38;;
72647;SDS011;60693;50.002;8.644;2023-02-01T10:04:47;9.93;;;1.33;;
72647;SDS011;60693;50.002;8.644;2023-02-01T10:07:26;5.53;;;1.00;;
72647;SDS011;60693;50.002;8.644;2023-02-01T10:10:00;5.93;;;1.00;;
72647;SDS011;60693;50.002;8.644;2023-02-01T10:12:36;9.88;;;1.27;;
72647;SDS011;60693;50.002;8.644;2023-02-01T10:20:41;9.40;;;1.20;;
72647;SDS011;60693;50.002;8.644;2023-02-01T10:28:43;8.63;;;1.33;;
72647;SDS011;60693;50.002;8.644;2023-02-01T10:31:09;9.17;;;1.67;;
72647;SDS011;60693;50.002;8.644;2023-02-01T10:33:45;8.15;;;1.33;;
72647;SDS011;60693;50.002;8.644;2023-02-01T10:36:15;10.67;;;1.20;;
72647;SDS011;60693;50.002;8.644;2023-02-01T10:38:42;4.60;;;0.60;;
72647;SDS011;60693;50.002;8.644;2023-02-01T10:41:17;7.07;;;1.40;;
72647;SDS011;60693;50.002;8.644;2023-02-01T10:43:45;10.00;;;2.40;;
72647;SDS011;60693;50.002;8.644;2023-02-01T10:46:14;10.70;;;1.30;;
72647;SDS011;60693;50.002;8.644;2023-02-01T10:48:39;9.60;;;1.00;;
72647;SDS011;60693;50.002;8.644;2023-02-01T10:51:07;9.15;;;1.40;;
72647;SDS011;60693;50.002;8.644;2023-02-01T10:53:42;10.47;;;1.53;;
72647;SDS011;60693;50.002;8.644;2023-02-01T10:56:12;8.23;;;0.80;;
72647;SDS011;60693;50.002;8.644;2023-02-01T10:58:45;6.68;;;1.00;;
72647;SDS011;60693;50.002;8.644;2023-02-01T11:01:22;8.50;;;1.00;;
72647;SDS011;60693;50.002;8.644;2023-02-01T11:04:00;9.45;;;1.15;;
72647;SDS011;60693;50.002;8.644;2023-02-01T11:08:55;8.70;;;0.80;;
72647;SDS011;60693;50.002;8.644;2023-02-01T11:11:22;7.47;;;0.68;;
72647;SDS011;60693;50.002;8.644;2023-02-01T11:13:58;9.55;;;1.33;;
72647;SDS011;60693;50.002;8.644;2023-02-01T11:16:28;7.93;;;1.67;;
72647;SDS011;60693;50.002;8.644;2023-02-01T11:19:04;11.47;;;2.37;;
72647;SDS011;60693;50.002;8.644;2023-02-01T11:21:30;7.10;;;1.33;;
72647;SDS011;60693;50.002;8.644;2023-02-01T11:24:00;10.23;;;1.20;;
72647;SDS011;60693;50.002;8.644;2023-02-01T11:26:28;5.82;;;0.95;;
72647;SDS011;60693;50.002;8.644;2023-02-01T11:28:56;11.43;;;1.00;;
72647;SDS011;60693;50.002;8.644;2023-02-01T11:31:25;7.43;;;0.97;;
72647;SDS011;60693;50.002;8.644;2023-02-01T11:33:53;7.70;;;1.10;;
72647;SDS011;60693;50.002;8.644;2023-02-01T11:36:40;8.70;;;1.20;;
72647;SDS011;60693;50.002;8.644;2023-02-01T11:39:24;10.45;;;1.60;;
72647;SDS011;60693;50.002;8.644;2023-02-01T11:42:01;10.90;;;1.50;;
72647;SDS011;60693;50.002;8.644;2023-02-01T11:44:35;7.93;;;0.80;;
72647;SDS011;60693;50.002;8.644;2023-02-01T11:50:00;6.47;;;1.13;;
72647;SDS011;60693;50.002;8.644;2023-02-01T12:03:30;10.32;;;1.40;;
72647;SDS011;60693;50.002;8.644;2023-02-01T12:06:08;8.55;;;1.50;;
72647;SDS011;60693;50.002;8.644;2023-02-01T12:11:30;5.73;;;0.77;;
72647;SDS011;60693;50.002;8.644;2023-02-01T12:14:14;8.80;;;1.75;;
72647;SDS011;60693;50.002;8.644;2023-02-01T12:20:08;10.00;;;1.50;;
72647;SDS011;60693;50.002;8.644;2023-02-01T12:28:17;7.63;;;1.48;;
72647;SDS011;60693;50.002;8.644;2023-02-01T12:31:01;13.30;;;3.85;;
72647;SDS011;60693;50.002;8.644;2023-02-01T12:34:03;16.13;;;2.95;;
72647;SDS011;60693;50.002;8.644;2023-02-01T12:39:26;8.40;;;1.40;;
72647;SDS011;60693;50.002;8.644;2023-02-01T12:42:03;8.33;;;1.00;;
72647;SDS011;60693;50.002;8.644;2023-02-01T12:44:38;6.63;;;1.15;;
72647;SDS011;60693;50.002;8.644;2023-02-01T12:47:09;8.73;;;1.02;;
72647;SDS011;60693;50.002;8.644;2023-02-01T12:49:47;8.27;;;1.30;;
72647;SDS011;60693;50.002;8.644;2023-02-01T12:52:38;10.95;;;1.17;;
72647;SDS011;60693;50.002;8.644;2023-02-01T12:57:43;11.55;;;1.50;;
72647;SDS011;60693;50.002;8.644;2023-02-01T13:05:17;8.90;;;1.27;;
72647;SDS011;60693;50.002;8.644;2023-02-01T13:07:45;10.33;;;1.77;;
72647;SDS011;60693;50.002;8.644;2023-02-01T13:12:51;10.30;;;1.10;;
72647;SDS011;60693;50.002;8.644;2023-02-01T13:15:31;8.95;;;1.42;;
72647;SDS011;60693;50.002;8.644;2023-02-01T13:18:02;10.25;;;1.20;;
72647;SDS011;60693;50.002;8.644;2023-02-01T13:20:34;12.67;;;1.50;;
72647;SDS011;60693;50.002;8.644;2023-02-01T13:28:16;7.07;;;1.75;;
72647;SDS011;60693;50.002;8.644;2023-02-01T13:30:55;7.05;;;0.88;;
72647;SDS011;60693;50.002;8.644;2023-02-01T13:33:29;11.20;;;1.10;;
72647;SDS011;60693;50.002;8.644;2023-02-01T13:41:29;9.68;;;1.20;;
72647;SDS011;60693;50.002;8.644;2023-02-01T13:44:00;7.15;;;1.27;;
72647;SDS011;60693;50.002;8.644;2023-02-01T13:46:28;11.27;;;1.60;;
72647;SDS011;60693;50.002;8.644;2023-02-01T13:48:56;24.13;;;8.43;;
72647;SDS011;60693;50.002;8.644;2023-02-01T13:51:44;11.93;;;2.55;;
72647;SDS011;60693;50.002;8.644;2023-02-01T13:54:23;6.80;;;1.27;;
72647;SDS011;60693;50.002;8.644;2023-02-01T13:56:57;5.75;;;1.10;;
72647;SDS011;60693;50.002;8.644;2023-02-01T14:05:12;7.25;;;1.08;;
72647;SDS011;60693;50.002;8.644;2023-02-01T14:10:54;11.00;;;1.42;;
72647;SDS011;60693;50.002;8.644;2023-02-01T14:13:37;6.00;;;0.90;;
72647;SDS011;60693;50.002;8.644;2023-02-01T14:21:20;9.02;;;1.40;;
72647;SDS011;60693;50.002;8.644;2023-02-01T14:23:47;8.25;;;1.70;;
72647;SDS011;60693;50.002;8.644;2023-02-01T14:26:24;10.00;;;1.20;;
72647;SDS011;60693;50.002;8.644;2023-02-01T14:31:32;7.50;;;1.30;;
72647;SDS011;60693;50.002;8.644;2023-02-01T14:34:00;9.38;;;1.17;;
72647;SDS011;60693;50.002;8.644;2023-02-01T14:36:38;9.77;;;1.15;;
72647;SDS011;60693;50.002;8.644;2023-02-01T14:39:18;6.88;;;1.50;;
72647;SDS011;60693;50.002;8.644;2023-02-01T14:47:44;7.70;;;0.73;;
72647;SDS011;60693;50.002;8.644;2023-02-01T14:58:32;9.47;;;0.97;;
72647;SDS011;60693;50.002;8.644;2023-02-01T15:06:29;5.95;;;1.55;;
72647;SDS011;60693;50.002;8.644;2023-02-01T15:08:58;6.80;;;1.00;;
72647;SDS011;60693;50.002;8.644;2023-02-01T15:11:26;6.47;;;1.23;;
72647;SDS011;60693;50.002;8.644;2023-02-01T15:13:52;5.60;;;1.58;;
72647;SDS011;60693;50.002;8.644;2023-02-01T15:16:21;11.10;;;1.38;;
72647;SDS011;60693;50.002;8.644;2023-02-01T15:18:48;7.57;;;1.00;;
72647;SDS011;60693;50.002;8.644;2023-02-01T15:21:21;7.20;;;1.10;;
72647;SDS011;60693;50.002;8.644;2023-02-01T15:23:48;5.10;;;1.02;;
72647;SDS011;60693;50.002;8.644;2023-02-01T15:26:29;8.15;;;1.13;;
72647;SDS011;60693;50.002;8.644;2023-02-01T15:28:57;11.43;;;1.10;;
72647;SDS011;60693;50.002;8.644;2023-02-01T15:31:33;8.57;;;0.98;;
72647;SDS011;60693;50.002;8.644;2023-02-01T15:34:03;5.57;;;0.75;;
72647;SDS011;60693;50.002;8.644;2023-02-01T15:36:29;5.55;;;0.93;;
72647;SDS011;60693;50.002;8.644;2023-02-01T15:41:57;9.15;;;1.10;;
72647;SDS011;60693;50.002;8.644;2023-02-01T15:44:39;15.20;;;1.33;;
72647;SDS011;60693;50.002;8.644;2023-02-01T15:47:16;8.88;;;1.33;;
72647;SDS011;60693;50.002;8.644;2023-02-01T15:49:44;6.43;;;0.93;;
72647;SDS011;60693;50.002;8.644;2023-02-01T15:52:21;11.70;;;1.67;;
72647;SDS011;60693;50.002;8.644;2023-02-01T15:54:52;8.80;;;1.15;;
72647;SDS011;60693;50.002;8.644;2023-02-01T15:57:29;9.88;;;1.27;;
72647;SDS011;60693;50.002;8.644;2023-02-01T16:00:03;6.00;;;0.98;;
72647;SDS011;60693;50.002;8.644;2023-02-01T16:02:35;8.90;;;1.38;;
72647;SDS011;60693;50.002;8.644;2023-02-01T16:05:02;10.53;;;1.50;;
72647;SDS011;60693;50.002;8.644;2023-02-01T16:07:32;12.75;;;1.17;;
72647;SDS011;60693;50.002;8.644;2023-02-01T16:10:00;8.23;;;1.20;;
72647;SDS011;60693;50.002;8.644;2023-02-01T16:15:04;10.75;;;0.95;;
72647;SDS011;60693;50.002;8.644;2023-02-01T16:17:30;6.87;;;0.90;;
72647;SDS011;60693;50.002;8.644;2023-02-01T16:19:56;6.18;;;0.80;;
72647;SDS011;60693;50.002;8.644;2023-02-01T16:22:23;6.18;;;1.10;;
72647;SDS011;60693;50.002;8.644;2023-02-01T16:24:48;8.32;;;1.05;;
72647;SDS011;60693;50.002;8.644;2023-02-01T16:27:14;8.87;;;0.73;;
72647;SDS011;60693;50.002;8.644;2023-02-01T16:29:40;7.53;;;0.73;;
72647;SDS011;60693;50.002;8.644;2023-02-01T16:32:05;6.07;;;0.90;;
72647;SDS011;60693;50.002;8.644;2023-02-01T16:34:31;10.03;;;1.10;;
72647;SDS011;60693;50.002;8.644;2023-02-01T16:36:57;10.85;;;0.90;;
72647;SDS011;60693;50.002;8.644;2023-02-01T16:39:23;9.10;;;1.38;;
72647;SDS011;60693;50.002;8.644;2023-02-01T16:41:49;3.03;;;0.55;;
72647;SDS011;60693;50.002;8.644;2023-02-01T16:44:15;3.83;;;0.60;;
72647;SDS011;60693;50.002;8.644;2023-02-01T16:46:42;8.73;;;0.90;;
72647;SDS011;60693;50.002;8.644;2023-02-01T16:49:28;6.47;;;1.10;;
72647;SDS011;60693;50.002;8.644;2023-02-01T16:51:55;9.98;;;1.55;;
72647;SDS011;60693;50.002;8.644;2023-02-01T16:54:23;8.75;;;1.27;;
72647;SDS011;60693;50.002;8.644;2023-02-01T16:56:48;7.15;;;1.08;;
72647;SDS011;60693;50.002;8.644;2023-02-01T16:59:14;8.43;;;1.13;;
72647;SDS011;60693;50.002;8.644;2023-02-01T17:01:40;7.63;;;1.07;;
72647;SDS011;60693;50.002;8.644;2023-02-01T17:04:08;10.95;;;1.10;;